createdAt,value
2023-02-24T00:00:53.031Z,100029.81
2023-02-24T00:02:00.915Z,100036.28
2023-02-24T00:03:06.364Z,100025.97
2023-02-24T00:04:10.509Z,100028.22
2023-02-24T00:05:12.891Z,100020.59
2023-02-24T00:06:14.377Z,100030.34
2023-02-24T00:07:17.375Z,100018.94
2023-02-24T00:08:18.942Z,100021.13
2023-02-24T00:09:23.255Z,100032.16
2023-02-24T00:10:24.741Z,100023.88
2023-02-24T00:11:28.081Z,100023.31
2023-02-24T00:12:29.582Z,100024.69
2023-02-24T00:13:32.331Z,100026.22
2023-02-24T00:14:36.726Z,100013.16
2023-02-24T00:15:40.487Z,100020.81
2023-02-24T00:16:42.401Z,100021.28
2023-02-24T00:17:45.731Z,100019.63
2023-02-24T00:18:47.293Z,100010.44
2023-02-24T00:19:51.923Z,100013.47
2023-02-24T00:20:56.618Z,100016.81
2023-02-24T00:21:59.818Z,100018.22
2023-02-24T00:23:01.341Z,100017.94
2023-02-24T00:24:03.937Z,100018.75
2023-02-24T00:25:06.402Z,100014.97
2023-02-24T00:26:11.078Z,100015.28
2023-02-24T00:27:12.666Z,100016.56
2023-02-24T00:28:15.224Z,100023.47
2023-02-24T00:29:16.701Z,100015.66
2023-02-24T00:30:21.414Z,100024.03
2023-02-24T00:31:24.930Z,100027.22
2023-02-24T00:32:27.763Z,100018.34
2023-02-24T00:33:30.827Z,100023.94
2023-02-24T00:34:35.427Z,100023.97
2023-02-24T00:35:36.916Z,100023.88
2023-02-24T00:36:40.299Z,100018.44
2023-02-24T00:37:41.833Z,100027.66
2023-02-24T00:38:47.026Z,100020.94
2023-02-24T00:39:48.564Z,100018.75
2023-02-24T00:40:51.017Z,100017.31
2023-02-24T00:41:52.608Z,100021.34
2023-02-24T00:42:55.075Z,100025.41
2023-02-24T00:43:59.166Z,100006.31
2023-02-24T00:45:07.530Z,100017.84
2023-02-24T00:46:11.397Z,100014.75
2023-02-24T00:47:17.593Z,100017.78
2023-02-24T00:48:19.423Z,100016.13
2023-02-24T00:49:24.440Z,100015.84
2023-02-24T00:50:26.167Z,100009.03
2023-02-24T00:51:29.099Z,100008.81
2023-02-24T00:52:30.903Z,100009.56
2023-02-24T00:53:33.340Z,100008.94
2023-02-24T00:54:36.093Z,100007.75
2023-02-24T00:55:38.514Z,100006.91
2023-02-24T00:56:40.389Z,99998.19
2023-02-24T00:57:42.854Z,99997.81
2023-02-24T00:58:44.972Z,100003.44
2023-02-24T00:59:48.332Z,99999.13
2023-02-24T01:00:49.794Z,100001.84
2023-02-24T01:01:54.781Z,100003.13
2023-02-24T01:02:59.384Z,99994.69
2023-02-24T01:04:06.305Z,99994.03
2023-02-24T01:05:09.450Z,100000.25
2023-02-24T01:06:13.009Z,99997.88
2023-02-24T01:07:14.576Z,100004.25
2023-02-24T01:08:21.397Z,99996.06
2023-02-24T01:09:22.895Z,99994.50
2023-02-24T01:10:26.951Z,99993.59
2023-02-24T01:11:51.913Z,99992.56
2023-02-24T01:12:54.022Z,99994.41
2023-02-24T01:13:55.715Z,99988.31
2023-02-24T01:14:58.347Z,99986.00
2023-02-24T01:16:02.247Z,99985.41
2023-02-24T01:17:05.991Z,99990.31
2023-02-24T01:18:10.961Z,99991.81
2023-02-24T01:19:13.475Z,99982.25
2023-02-24T01:20:16.465Z,99989.00
2023-02-24T01:21:21.212Z,99987.09
2023-02-24T01:22:23.739Z,99978.53
2023-02-24T01:23:26.895Z,99974.78
2023-02-24T01:24:28.911Z,99976.09
2023-02-24T01:25:31.444Z,99980.94
2023-02-24T01:26:32.978Z,99976.94
2023-02-24T01:27:37.006Z,99983.19
2023-02-24T01:28:38.641Z,99973.38
2023-02-24T01:29:43.431Z,99971.72
2023-02-24T01:30:44.920Z,99974.97
2023-02-24T01:31:49.519Z,99975.75
2023-02-24T01:32:51.665Z,99976.56
2023-02-24T01:33:56.003Z,99972.72
2023-02-24T01:34:57.715Z,99964.94
2023-02-24T01:36:09.694Z,99967.84
2023-02-24T01:37:16.251Z,99968.31
2023-02-24T01:38:25.916Z,99965.88
2023-02-24T01:39:28.101Z,99962.34
2023-02-24T01:40:30.638Z,99964.22
2023-02-24T01:41:32.493Z,99959.66
2023-02-24T01:42:33.991Z,99966.72
2023-02-24T01:43:58.700Z,99956.25
2023-02-24T01:45:16.908Z,99954.81
2023-02-24T01:46:23.406Z,99955.63
2023-02-24T01:47:31.083Z,99950.53
2023-02-24T01:48:33.618Z,99954.31
2023-02-24T01:49:41.067Z,99946.66
2023-02-24T01:50:43.664Z,99940.28
2023-02-24T01:51:49.705Z,99938.97
2023-02-24T01:52:56.117Z,99951.44
2023-02-24T01:53:57.762Z,99951.72
2023-02-24T01:55:05.479Z,99941.63
2023-02-24T01:56:07.273Z,99942.03
2023-02-24T01:57:10.869Z,99948.53
2023-02-24T01:58:19.989Z,99941.25
2023-02-24T01:59:23.883Z,99948.25
2023-02-24T02:00:37.377Z,99939.56
2023-02-24T02:01:42.974Z,99940.97
2023-02-24T02:02:48.116Z,99942.56
2023-02-24T02:03:52.223Z,99942.09
2023-02-24T02:04:58.213Z,99942.03
2023-02-24T02:06:02.830Z,99935.19
2023-02-24T02:07:04.949Z,99939.75
2023-02-24T02:08:09.661Z,99938.16
2023-02-24T02:09:15.291Z,99925.41
2023-02-24T02:10:18.452Z,99931.38
2023-02-24T02:11:20.538Z,99927.59
2023-02-24T02:12:25.216Z,99927.72
2023-02-24T02:13:29.237Z,99933.56
2023-02-24T02:14:32.845Z,99923.06
2023-02-24T02:15:40.525Z,99926.22
2023-02-24T02:17:07.144Z,99930.63
2023-02-24T02:18:17.747Z,99936.81
2023-02-24T02:19:44.539Z,99922.69
2023-02-24T02:21:04.869Z,99952.28
2023-02-24T02:22:26.938Z,99947.72
2023-02-24T02:23:57.940Z,99951.44
2023-02-24T02:25:09.402Z,99958.78
2023-02-24T02:26:32.568Z,99946.59
2023-02-24T02:27:51.364Z,99946.69
2023-02-24T02:29:22.063Z,99948.09
2023-02-24T02:30:44.481Z,99942.25
2023-02-24T02:32:08.735Z,99945.06
2023-02-24T02:33:47.899Z,99938.69
2023-02-24T02:34:55.344Z,99943.88
2023-02-24T02:36:06.893Z,99936.91
2023-02-24T02:37:14.634Z,99942.66
2023-02-24T02:38:25.929Z,99938.78
2023-02-24T02:39:34.553Z,99936.59
2023-02-24T02:40:41.275Z,99937.97
2023-02-24T02:41:54.156Z,99937.50
2023-02-24T02:43:00.644Z,99940.06
2023-02-24T02:44:09.518Z,99940.09
2023-02-24T02:45:19.163Z,99937.31
2023-02-24T02:46:34.733Z,99938.16
2023-02-24T02:47:41.249Z,99935.84
2023-02-24T02:48:50.762Z,99941.25
2023-02-24T02:49:58.391Z,99942.88
2023-02-24T02:51:07.100Z,99938.25
2023-02-24T02:52:15.652Z,99937.59
2023-02-24T02:53:25.282Z,99932.38
2023-02-24T02:54:31.137Z,99927.69
2023-02-24T02:55:39.549Z,99940.13
2023-02-24T02:56:46.923Z,99936.16
2023-02-24T02:57:53.253Z,99928.88
2023-02-24T02:58:56.670Z,99930.47
2023-02-24T03:00:10.618Z,99935.13
2023-02-24T03:01:17.405Z,99928.63
2023-02-24T03:02:28.048Z,99931.13
2023-02-24T03:03:32.213Z,99937.72
2023-02-24T03:04:36.243Z,99935.53
2023-02-24T03:05:46.839Z,99925.06
2023-02-24T03:06:53.220Z,99930.16
2023-02-24T03:07:56.941Z,99933.88
2023-02-24T03:09:11.310Z,99928.25
2023-02-24T03:10:20.895Z,99918.34
2023-02-24T03:11:24.826Z,99915.44
2023-02-24T03:12:30.130Z,99911.66
2023-02-24T03:13:37.386Z,99910.34
2023-02-24T03:14:43.055Z,99903.59
2023-02-24T03:15:47.525Z,99903.03
2023-02-24T03:16:50.752Z,99901.97
2023-02-24T03:17:57.067Z,99907.41
2023-02-24T03:19:03.737Z,99907.38
2023-02-24T03:20:16.073Z,99902.00
2023-02-24T03:21:25.944Z,99907.91
2023-02-24T03:22:35.062Z,99907.59
2023-02-24T03:23:45.988Z,99902.97
2023-02-24T03:24:47.616Z,99902.22
2023-02-24T03:25:58.911Z,99899.06
2023-02-24T03:27:06.880Z,99897.13
2023-02-24T03:28:16.282Z,99896.63
2023-02-24T03:29:23.846Z,99895.53
2023-02-24T03:30:31.200Z,99890.91
2023-02-24T03:31:40.917Z,99891.72
2023-02-24T03:32:51.427Z,99886.97
2023-02-24T03:34:01.384Z,99879.31
2023-02-24T03:35:13.691Z,99884.88
2023-02-24T03:36:16.142Z,99884.81
2023-02-24T03:37:25.539Z,99887.34
2023-02-24T03:38:30.499Z,99884.72
2023-02-24T03:39:32.668Z,99888.31
2023-02-24T03:40:36.250Z,99882.19
2023-02-24T03:41:46.155Z,99891.94
2023-02-24T03:42:50.395Z,99882.75
2023-02-24T03:43:55.318Z,99890.06
2023-02-24T03:44:58.454Z,99883.44
2023-02-24T03:46:01.764Z,99884.59
2023-02-24T03:47:03.791Z,99881.34
2023-02-24T03:48:07.764Z,99874.84
2023-02-24T03:49:17.078Z,99882.72
2023-02-24T03:50:22.861Z,99885.16
2023-02-24T03:51:24.410Z,99881.94
2023-02-24T03:52:35.824Z,99884.69
2023-02-24T03:53:48.446Z,99879.28
2023-02-24T03:55:06.191Z,99889.06
2023-02-24T03:56:22.542Z,99883.56
2023-02-24T03:57:34.649Z,99873.81
2023-02-24T03:58:47.595Z,99884.03
2023-02-24T03:59:57.379Z,99889.19
2023-02-24T04:01:07.725Z,99882.44
2023-02-24T04:02:19.369Z,99880.06
2023-02-24T04:03:29.094Z,99871.03
2023-02-24T04:04:37.905Z,99876.06
2023-02-24T04:05:47.603Z,99876.13
2023-02-24T04:06:56.548Z,99884.88
2023-02-24T04:08:01.318Z,99875.13
2023-02-24T04:09:13.165Z,99885.44
2023-02-24T04:10:22.214Z,99870.50
2023-02-24T04:11:30.345Z,99873.66
2023-02-24T04:12:38.214Z,99866.75
2023-02-24T04:13:47.227Z,99868.75
2023-02-24T04:14:54.547Z,99862.06
2023-02-24T04:16:02.889Z,99862.88
2023-02-24T04:17:13.331Z,99856.38
2023-02-24T04:18:19.864Z,99860.50
2023-02-24T04:19:24.102Z,99854.84
2023-02-24T04:20:32.230Z,99859.16
2023-02-24T04:21:38.395Z,99848.88
2023-02-24T04:22:44.717Z,99851.88
2023-02-24T04:23:47.710Z,99847.53
2023-02-24T04:24:53.241Z,99848.63
2023-02-24T04:25:56.216Z,99849.44
2023-02-24T04:27:01.697Z,99851.88
2023-02-24T04:28:07.936Z,99851.03
2023-02-24T04:29:17.404Z,99861.25
2023-02-24T04:30:21.009Z,99860.16
2023-02-24T04:31:25.685Z,99853.56
2023-02-24T04:32:31.508Z,99849.94
2023-02-24T04:33:33.323Z,99854.56
2023-02-24T04:34:36.048Z,99846.78
2023-02-24T04:35:37.960Z,99846.25
2023-02-24T04:36:41.786Z,99854.13
2023-02-24T04:37:44.723Z,99850.38
2023-02-24T04:38:47.317Z,99845.97
2023-02-24T04:39:50.775Z,99845.94
2023-02-24T04:40:53.247Z,99845.63
2023-02-24T04:41:54.919Z,99844.38
2023-02-24T04:42:57.503Z,99839.50
2023-02-24T04:43:59.227Z,99830.03
2023-02-24T04:45:01.685Z,99842.22
2023-02-24T04:46:07.945Z,99836.25
2023-02-24T04:47:12.072Z,99840.03
2023-02-24T04:48:13.927Z,99824.94
2023-02-24T04:49:18.007Z,99835.31
2023-02-24T04:50:24.047Z,99835.59
2023-02-24T04:51:26.592Z,99835.03
2023-02-24T04:52:29.402Z,99828.22
2023-02-24T04:53:31.985Z,99825.72
2023-02-24T04:54:34.819Z,99824.59
2023-02-24T04:55:40.436Z,99819.09
2023-02-24T04:56:42.025Z,99825.69
2023-02-24T04:57:45.959Z,99825.97
2023-02-24T04:58:47.409Z,99816.31
2023-02-24T04:59:49.842Z,99818.53
2023-02-24T05:00:52.730Z,99812.53
2023-02-24T05:01:55.500Z,99814.19
2023-02-24T05:02:57.023Z,99816.34
2023-02-24T05:04:00.169Z,99819.06
2023-02-24T05:05:02.264Z,99810.66
2023-02-24T05:06:06.376Z,99806.06
2023-02-24T05:07:07.927Z,99810.41
2023-02-24T05:08:12.266Z,99808.25
2023-02-24T05:09:17.817Z,99806.06
2023-02-24T05:10:20.632Z,99805.28
2023-02-24T05:11:22.421Z,99805.28
2023-02-24T05:12:25.069Z,99803.91
2023-02-24T05:13:31.672Z,99810.38
2023-02-24T05:14:34.622Z,99801.44
2023-02-24T05:15:40.441Z,99797.56
2023-02-24T05:16:44.174Z,99801.09
2023-02-24T05:17:45.762Z,99794.09
2023-02-24T05:18:48.201Z,99802.53
2023-02-24T05:20:19.758Z,99798.22
2023-02-24T05:21:36.239Z,99794.69
2023-02-24T05:22:37.755Z,99807.41
2023-02-24T05:23:44.817Z,99808.25
2023-02-24T05:24:47.951Z,99806.06
2023-02-24T05:25:54.868Z,99807.69
2023-02-24T05:26:59.368Z,99802.00
2023-02-24T05:28:03.948Z,99800.63
2023-02-24T05:29:07.209Z,99803.63
2023-02-24T05:30:10.076Z,99803.09
2023-02-24T05:31:15.548Z,99804.44
2023-02-24T05:32:17.452Z,99799.59
2023-02-24T05:33:21.487Z,99801.19
2023-02-24T05:34:24.195Z,99799.00
2023-02-24T05:35:27.206Z,99799.00
2023-02-24T05:36:32.095Z,99798.75
2023-02-24T05:37:38.820Z,99797.94
2023-02-24T05:38:41.824Z,99795.50
2023-02-24T05:39:44.224Z,99797.13
2023-02-24T05:40:47.548Z,99792.22
2023-02-24T05:41:54.521Z,99785.44
2023-02-24T05:42:58.149Z,99786.00
2023-02-24T05:44:04.707Z,99781.91
2023-02-24T05:45:07.941Z,99780.28
2023-02-24T05:46:10.636Z,99783.53
2023-02-24T05:47:12.115Z,99778.69
2023-02-24T05:48:15.451Z,99771.63
2023-02-24T05:49:23.180Z,99784.91
2023-02-24T05:50:26.483Z,99777.84
2023-02-24T05:51:35.104Z,99785.44
2023-02-24T05:52:37.806Z,99773.50
2023-02-24T05:53:52.311Z,99777.06
2023-02-24T05:54:55.103Z,99768.31
2023-02-24T05:56:00.577Z,99775.56
2023-02-24T05:57:05.633Z,99772.34
2023-02-24T05:58:07.268Z,99770.41
2023-02-24T05:59:10.969Z,99773.19
2023-02-24T06:00:16.241Z,99772.06
2023-02-24T06:01:19.357Z,99763.09
2023-02-24T06:02:27.892Z,99761.53
2023-02-24T06:03:31.045Z,99762.88
2023-02-24T06:04:40.229Z,99762.06
2023-02-24T06:05:42.555Z,99766.44
2023-02-24T06:06:45.323Z,99769.41
2023-02-24T06:07:47.548Z,99771.88
2023-02-24T06:08:51.989Z,99763.22
2023-02-24T06:09:56.528Z,99776.25
2023-02-24T06:10:59.341Z,99771.13
2023-02-24T06:12:00.980Z,99767.31
2023-02-24T06:13:04.181Z,99767.59
2023-02-24T06:14:07.122Z,99767.56
2023-02-24T06:15:10.766Z,99763.44
2023-02-24T06:16:13.426Z,99769.63
2023-02-24T06:17:18.709Z,99771.78
2023-02-24T06:18:21.718Z,99770.75
2023-02-24T06:19:25.385Z,99770.25
2023-02-24T06:20:27.810Z,99769.72
2023-02-24T06:21:30.245Z,99767.28
2023-02-24T06:22:33.625Z,99776.69
2023-02-24T06:23:36.064Z,99777.56
2023-02-24T06:24:39.378Z,99767.03
2023-02-24T06:25:42.346Z,99768.09
2023-02-24T06:26:44.522Z,99767.84
2023-02-24T06:27:53.079Z,99770.81
2023-02-24T06:28:54.634Z,99772.72
2023-02-24T06:29:57.592Z,99775.19
2023-02-24T06:31:03.223Z,99772.19
2023-02-24T06:32:08.643Z,99771.91
2023-02-24T06:33:10.631Z,99772.19
2023-02-24T06:34:14.803Z,99768.09
2023-02-24T06:35:16.729Z,99770.22
2023-02-24T06:36:19.236Z,99775.66
2023-02-24T06:37:20.950Z,99771.34
2023-02-24T06:38:23.352Z,99772.47
2023-02-24T06:39:24.813Z,99761.88
2023-02-24T06:40:29.167Z,99757.63
2023-02-24T06:41:30.674Z,99763.84
2023-02-24T06:42:33.140Z,99769.28
2023-02-24T06:43:34.733Z,99760.34
2023-02-24T06:44:38.982Z,99764.47
2023-02-24T06:45:41.571Z,99756.88
2023-02-24T06:46:43.281Z,99760.47
2023-02-24T06:47:48.870Z,99756.03
2023-02-24T06:48:50.367Z,99761.88
2023-02-24T06:49:53.523Z,99753.00
2023-02-24T06:50:55.310Z,99754.25
2023-02-24T06:51:57.922Z,99756.91
2023-02-24T06:53:00.714Z,99748.63
2023-02-24T06:54:03.309Z,99740.03
2023-02-24T06:55:05.701Z,99746.03
2023-02-24T06:56:14.754Z,99746.50
2023-02-24T06:57:16.617Z,99746.63
2023-02-24T06:58:23.696Z,99749.66
2023-02-24T06:59:28.557Z,99743.69
2023-02-24T07:00:39.567Z,99751.28
2023-02-24T07:01:45.326Z,99745.34
2023-02-24T07:02:48.306Z,99749.41
2023-02-24T07:04:17.637Z,99750.50
2023-02-24T07:05:24.080Z,99750.09
2023-02-24T07:06:25.760Z,99748.53
2023-02-24T07:07:30.924Z,99752.56
2023-02-24T07:08:32.520Z,99747.94
2023-02-24T07:09:35.524Z,99739.72
2023-02-24T07:10:37.117Z,99737.94
2023-02-24T07:11:44.075Z,99738.25
2023-02-24T07:12:46.578Z,99742.88
2023-02-24T07:13:49.846Z,99748.06
2023-02-24T07:14:51.385Z,99733.97
2023-02-24T07:15:54.826Z,99735.59
2023-02-24T07:16:58.291Z,99749.13
2023-02-24T07:17:59.879Z,99745.91
2023-02-24T07:19:09.565Z,99740.47
2023-02-24T07:20:25.024Z,99744.78
2023-02-24T07:21:30.160Z,99740.19
2023-02-24T07:22:32.732Z,99746.19
2023-02-24T07:23:34.224Z,99739.41
2023-02-24T07:24:39.100Z,99740.78
2023-02-24T07:25:43.112Z,99737.50
2023-02-24T07:26:51.687Z,99737.22
2023-02-24T07:27:53.295Z,99732.34
2023-02-24T07:28:56.697Z,99737.22
2023-02-24T07:29:59.192Z,99735.59
2023-02-24T07:31:01.670Z,99734.53
2023-02-24T07:32:06.572Z,99736.16
2023-02-24T07:33:08.732Z,99727.47
2023-02-24T07:34:15.121Z,99727.19
2023-02-24T07:35:17.743Z,99720.69
2023-02-24T07:36:23.159Z,99719.34
2023-02-24T07:37:25.735Z,99723.69
2023-02-24T07:38:27.195Z,99719.31
2023-02-24T07:39:29.993Z,99721.50
2023-02-24T07:40:33.351Z,99712.56
2023-02-24T07:41:37.046Z,99709.31
2023-02-24T07:42:42.204Z,99713.91
2023-02-24T07:43:46.120Z,99707.97
2023-02-24T07:44:49.302Z,99704.97
2023-02-24T07:45:52.773Z,99706.34
2023-02-24T07:46:56.623Z,99706.88
2023-02-24T07:48:01.297Z,99699.81
2023-02-24T07:49:04.121Z,99703.06
2023-02-24T07:50:13.277Z,99697.38
2023-02-24T07:51:19.471Z,99704.13
2023-02-24T07:52:22.642Z,99703.09
2023-02-24T07:53:24.278Z,99707.97
2023-02-24T07:54:30.005Z,99701.47
2023-02-24T07:55:36.025Z,99705.25
2023-02-24T07:56:45.935Z,99704.44
2023-02-24T07:57:49.810Z,99697.84
2023-02-24T07:58:51.730Z,99703.84
2023-02-24T07:59:54.274Z,99687.34
2023-02-24T08:01:08.709Z,99693.56
2023-02-24T08:02:11.335Z,99697.66
2023-02-24T08:03:14.649Z,99687.38
2023-02-24T08:04:18.649Z,99683.03
2023-02-24T08:05:30.416Z,99681.63
2023-02-24T08:06:38.038Z,99675.94
2023-02-24T08:07:40.613Z,99680.31
2023-02-24T08:08:58.819Z,99677.31
2023-02-24T08:10:10.255Z,99679.50
2023-02-24T08:11:14.873Z,99667.59
2023-02-24T08:12:21.331Z,99669.75
2023-02-24T08:13:25.644Z,99668.41
2023-02-24T08:14:32.929Z,99668.38
2023-02-24T08:15:35.609Z,99664.56
2023-02-24T08:16:39.657Z,99659.44
2023-02-24T08:17:42.158Z,99657.53
2023-02-24T08:18:48.906Z,99647.22
2023-02-24T08:20:12.797Z,99652.03
2023-02-24T08:21:16.061Z,99641.00
2023-02-24T08:22:21.053Z,99649.44
2023-02-24T08:23:24.099Z,99651.59
2023-02-24T08:24:29.897Z,99654.88
2023-02-24T08:25:36.461Z,99646.72
2023-02-24T08:26:44.717Z,99641.59
2023-02-24T08:28:07.031Z,99639.69
2023-02-24T08:29:12.335Z,99634.81
2023-02-24T08:30:23.283Z,99631.31
2023-02-24T08:31:26.294Z,99632.94
2023-02-24T08:32:33.819Z,99630.22
2023-02-24T08:33:37.381Z,99624.00
2023-02-24T08:34:39.235Z,99626.19
2023-02-24T08:35:44.817Z,99631.56
2023-02-24T08:36:55.693Z,99624.78
2023-02-24T08:38:01.778Z,99625.34
2023-02-24T08:39:04.811Z,99627.25
2023-02-24T08:40:29.346Z,99624.53
2023-02-24T08:41:45.644Z,99627.25
2023-02-24T08:42:50.014Z,99626.44
2023-02-24T08:43:52.430Z,99617.22
2023-02-24T08:44:58.081Z,99623.47
2023-02-24T08:46:03.760Z,99616.94
2023-02-24T08:47:07.508Z,99608.00
2023-02-24T08:48:18.422Z,99612.63
2023-02-24T08:49:24.920Z,99609.66
2023-02-24T08:50:31.044Z,99602.31
2023-02-24T08:51:35.739Z,99607.19
2023-02-24T08:52:39.193Z,99607.75
2023-02-24T08:53:41.893Z,99601.25
2023-02-24T08:54:49.290Z,99599.88
2023-02-24T08:55:51.895Z,99595.00
2023-02-24T08:56:56.732Z,99595.84
2023-02-24T08:58:01.647Z,99587.44
2023-02-24T08:59:06.523Z,99586.63
2023-02-24T09:00:28.082Z,99577.44
2023-02-24T09:01:34.899Z,99568.22
2023-02-24T09:02:40.400Z,99563.81
2023-02-24T09:03:46.073Z,99575.75
2023-02-24T09:04:52.286Z,99565.44
2023-02-24T09:06:04.505Z,99559.00
2023-02-24T09:07:15.254Z,99556.88
2023-02-24T09:08:24.062Z,99556.31
2023-02-24T09:09:26.737Z,99556.03
2023-02-24T09:10:28.619Z,99554.94
2023-02-24T09:11:31.072Z,99551.91
2023-02-24T09:12:35.327Z,99543.19
2023-02-24T09:13:43.056Z,99546.50
2023-02-24T09:14:45.495Z,99541.06
2023-02-24T09:15:48.603Z,99540.88
2023-02-24T09:17:06.140Z,99540.34
2023-02-24T09:18:10.567Z,99539.47
2023-02-24T09:19:40.390Z,99537.22
2023-02-24T09:21:16.035Z,99529.03
2023-02-24T09:22:31.406Z,99525.22
2023-02-24T09:23:45.977Z,99526.72
2023-02-24T09:24:51.133Z,99524.97
2023-02-24T09:25:54.249Z,99518.59
2023-02-24T09:26:58.574Z,99522.78
2023-02-24T09:28:08.280Z,99514.66
2023-02-24T09:29:33.531Z,99505.72
2023-02-24T09:30:38.282Z,99518.00
2023-02-24T09:31:55.275Z,99513.91
2023-02-24T09:33:01.273Z,99501.19
2023-02-24T09:34:10.377Z,99507.56
2023-02-24T09:35:14.866Z,99505.69
2023-02-24T09:36:21.090Z,99498.44
2023-02-24T09:37:25.299Z,99491.28
2023-02-24T09:38:57.776Z,99498.47
2023-02-24T09:40:33.396Z,99497.94
2023-02-24T09:41:52.900Z,99485.00
2023-02-24T09:42:58.261Z,99486.50
2023-02-24T09:44:03.768Z,99483.31
2023-02-24T09:45:11.748Z,99486.66
2023-02-24T09:46:14.714Z,99484.97
2023-02-24T09:47:31.032Z,99485.84
2023-02-24T09:48:44.638Z,99483.22
2023-02-24T09:49:56.606Z,99493.53
2023-02-24T09:51:06.045Z,99490.28
2023-02-24T09:52:16.799Z,99497.38
2023-02-24T09:53:19.637Z,99483.41
2023-02-24T09:54:24.535Z,99479.91
2023-02-24T09:55:35.772Z,99477.56
2023-02-24T09:56:43.716Z,99475.19
2023-02-24T09:58:07.536Z,99471.38
2023-02-24T09:59:20.773Z,99462.59
2023-02-24T10:00:26.283Z,99467.75
2023-02-24T10:01:43.235Z,99465.00
2023-02-24T10:02:59.992Z,99471.13
2023-02-24T10:04:20.654Z,99460.56
2023-02-24T10:05:28.591Z,99468.06
2023-02-24T10:06:35.473Z,99464.41
2023-02-24T10:07:41.362Z,99454.09
2023-02-24T10:08:49.633Z,99449.41
2023-02-24T10:10:19.419Z,99440.94
2023-02-24T10:11:32.855Z,99449.66
2023-02-24T10:12:40.137Z,99436.03
2023-02-24T10:13:50.362Z,99433.03
2023-02-24T10:15:17.133Z,99430.88
2023-02-24T10:16:23.984Z,99427.47
2023-02-24T10:17:39.971Z,99426.56
2023-02-24T10:18:48.362Z,99424.66
2023-02-24T10:19:56.448Z,99419.81
2023-02-24T10:21:07.398Z,99414.44
2023-02-24T10:22:27.473Z,99411.22
2023-02-24T10:23:45.138Z,99417.38
2023-02-24T10:24:50.845Z,99416.44
2023-02-24T10:25:55.334Z,99407.72
2023-02-24T10:27:08.371Z,99399.44
2023-02-24T10:28:25.239Z,99391.16
2023-02-24T10:29:39.023Z,99397.44
2023-02-24T10:30:51.283Z,99404.09
2023-02-24T10:32:07.171Z,99396.44
2023-02-24T10:33:25.321Z,99405.41
2023-02-24T10:34:31.813Z,99405.28
2023-02-24T10:35:36.696Z,99394.28
2023-02-24T10:36:39.188Z,99394.91
2023-02-24T10:37:42.564Z,99386.38
2023-02-24T10:38:46.598Z,99388.72
2023-02-24T10:39:51.891Z,99375.75
2023-02-24T10:40:57.557Z,99388.09
2023-02-24T10:42:15.637Z,99392.06
2023-02-24T10:43:19.879Z,99379.75
2023-02-24T10:44:24.839Z,99382.41
2023-02-24T10:45:34.767Z,99378.44
2023-02-24T10:46:42.130Z,99381.22
2023-02-24T10:47:49.542Z,99373.00
2023-02-24T10:49:00.387Z,99372.53
2023-02-24T10:50:05.056Z,99379.97
2023-02-24T10:51:19.683Z,99372.41
2023-02-24T10:52:37.066Z,99382.66
2023-02-24T10:53:40.836Z,99373.72
2023-02-24T10:55:04.966Z,99382.84
2023-02-24T10:56:41.803Z,99373.28
2023-02-24T10:57:58.997Z,99352.78
2023-02-24T10:59:41.883Z,99365.75
2023-02-24T11:01:08.887Z,99361.28
2023-02-24T11:02:29.393Z,99350.47
2023-02-24T11:03:41.980Z,99341.97
2023-02-24T11:04:54.342Z,99335.91
2023-02-24T11:06:20.150Z,99340.63
2023-02-24T11:07:24.950Z,99338.34
2023-02-24T11:08:36.710Z,99338.19
2023-02-24T11:09:52.446Z,99331.78
2023-02-24T11:10:58.907Z,99330.03
2023-02-24T11:12:24.927Z,99335.63
2023-02-24T11:13:45.023Z,99325.03
2023-02-24T11:15:11.688Z,99330.56
2023-02-24T11:16:33.621Z,99325.16
2023-02-24T11:17:37.603Z,99325.69
2023-02-24T11:18:41.489Z,99321.53
2023-02-24T11:19:48.192Z,99321.53
2023-02-24T11:20:54.840Z,99321.31
2023-02-24T11:21:59.990Z,99311.88
2023-02-24T11:23:05.061Z,99321.59
2023-02-24T11:24:15.529Z,99313.38
2023-02-24T11:25:21.624Z,99310.13
2023-02-24T11:26:28.272Z,99308.13
2023-02-24T11:27:29.949Z,99307.16
2023-02-24T11:28:51.176Z,99306.66
2023-02-24T11:30:17.705Z,99306.25
2023-02-24T11:31:32.788Z,99307.41
2023-02-24T11:33:06.474Z,99296.69
2023-02-24T11:34:17.153Z,99292.81
2023-02-24T11:35:26.267Z,99296.41
2023-02-24T11:36:37.190Z,99286.47
2023-02-24T11:37:44.405Z,99292.69
2023-02-24T11:38:53.711Z,99284.63
2023-02-24T11:40:01.286Z,99283.22
2023-02-24T11:41:10.414Z,99282.66
2023-02-24T11:42:15.128Z,99270.88
2023-02-24T11:43:21.865Z,99280.91
2023-02-24T11:44:29.786Z,99273.53
2023-02-24T11:45:37.714Z,99273.41
2023-02-24T11:46:44.258Z,99268.13
2023-02-24T11:47:52.789Z,99263.34
2023-02-24T11:48:59.571Z,99264.25
2023-02-24T11:50:17.569Z,99265.94
2023-02-24T11:51:25.816Z,99256.06
2023-02-24T11:52:32.631Z,99257.72
2023-02-24T11:53:42.647Z,99255.28
2023-02-24T11:54:50.940Z,99253.47
2023-02-24T11:55:59.234Z,99250.50
2023-02-24T11:57:03.806Z,99255.00
2023-02-24T11:58:13.571Z,99247.94
2023-02-24T11:59:21.330Z,99246.97
2023-02-24T12:00:28.002Z,99242.72
2023-02-24T12:01:33.668Z,99236.78
2023-02-24T12:02:44.830Z,99240.47
2023-02-24T12:03:57.105Z,99239.88
2023-02-24T12:05:04.150Z,99238.00
2023-02-24T12:06:15.457Z,99239.63
2023-02-24T12:07:24.124Z,99238.72
2023-02-24T12:08:33.339Z,99223.56
2023-02-24T12:09:44.030Z,99224.34
2023-02-24T12:10:50.494Z,99226.16
2023-02-24T12:11:57.726Z,99215.88
2023-02-24T12:13:08.532Z,99218.81
2023-02-24T12:14:21.450Z,99224.91
2023-02-24T12:15:27.882Z,99226.19
2023-02-24T12:16:35.554Z,99212.03
2023-02-24T12:17:44.460Z,99218.16
2023-02-24T12:18:51.386Z,99212.59
2023-02-24T12:20:01.556Z,99209.56
2023-02-24T12:21:08.317Z,99203.59
2023-02-24T12:22:15.640Z,99210.47
2023-02-24T12:23:23.210Z,99210.63
2023-02-24T12:24:25.893Z,99206.78
2023-02-24T12:25:38.680Z,99207.94
2023-02-24T12:26:53.043Z,99210.16
2023-02-24T12:28:05.408Z,99199.97
2023-02-24T12:29:27.893Z,99196.09
2023-02-24T12:30:49.648Z,99196.78
2023-02-24T12:32:01.773Z,99194.50
2023-02-24T12:33:19.204Z,99186.50
2023-02-24T12:34:30.323Z,99192.59
2023-02-24T12:35:44.620Z,99198.25
2023-02-24T12:37:17.804Z,99182.81
2023-02-24T12:38:33.997Z,99185.25
2023-02-24T12:39:45.137Z,99179.69
2023-02-24T12:40:57.097Z,99178.56
2023-02-24T12:42:11.273Z,99177.56
2023-02-24T12:43:22.999Z,99183.00
2023-02-24T12:44:36.194Z,99187.41
2023-02-24T12:45:48.692Z,99183.16
2023-02-24T12:46:59.827Z,99180.34
2023-02-24T12:48:10.992Z,99169.31
2023-02-24T12:49:28.331Z,99171.88
2023-02-24T12:50:42.036Z,99165.06
2023-02-24T12:51:54.648Z,99168.81
2023-02-24T12:53:06.399Z,99169.75
2023-02-24T12:54:16.711Z,99165.97
2023-02-24T12:55:24.547Z,99152.91
2023-02-24T12:56:35.200Z,99152.53
2023-02-24T12:57:44.202Z,99160.25
2023-02-24T12:58:48.893Z,99157.91
2023-02-24T12:59:50.687Z,99148.38
2023-02-24T13:01:06.916Z,99150.06
2023-02-24T13:02:23.317Z,99149.16
2023-02-24T13:03:40.520Z,99152.25
2023-02-24T13:04:57.052Z,99139.25
2023-02-24T13:06:07.133Z,99146.44
2023-02-24T13:07:23.810Z,99142.19
2023-02-24T13:08:40.434Z,99143.06
2023-02-24T13:09:49.549Z,99140.63
2023-02-24T13:11:04.710Z,99147.19